New Haven, Connecticut
Current Conditions -  °F | °C
As of 8:53 AM on Wednesday 26 Nov 2014 (Local Time) from KHVN Reporting Station
Moderate Rain Moderate Rain  
Wind Chill: 32°   Ceiling: 3200
Heat Index: 40°   Visibility: 2mi
Dew Point: 34°   Wind: 14mph
Humidity: 79%   Direction: 20°NNE
Pressure: 30.12"   Gusts: NA
Location:  41.31°N, 72.92°W
Report Text: KHVN 261353Z 02012KT 2SM RA BR OVC032 04/01 A3012 RMK AO2 PRESFR SLP200 P0007 T00440011
Loading
Personal Weather Stations






























Interactive Weather Map New forecast layout! Learn more

10-Day Weather Forecast

Advertisements
Track Severe Weather on mobile